Time;durP1;ratioP1;P1;durP2;ratioP2;P2;SDS_P1;SDS_P2;PMS_P1;PMS_P2;Temp;Humidity;BMP_temperature;BMP_pressure;BME280_temperature;BME280_humidity;BME280_pressure;Samples;Min_cycle;Max_cycle;Signal;HPM_P1;HPM_P2
2022/10/19 00:01:23;;;;;;;0.60;0.60;;;;;;;;;;5080799;28;20958;-77
2022/10/19 00:03:50;;;;;;;1.27;1.17;;;;;;;;;;5081358;28;20442;-77
2022/10/19 00:06:19;;;;;;;0.90;0.90;;;;;;;;;;5082641;28;20516;-77
2022/10/19 00:08:45;;;;;;;0.60;0.60;;;;;;;;;;5083349;28;20443;-77
2022/10/19 00:11:12;;;;;;;0.70;0.70;;;;;;;;;;5080033;28;20433;-76
2022/10/19 00:13:39;;;;;;;1.97;1.37;;;;;;;;;;5067220;28;20455;-77
2022/10/19 00:16:07;;;;;;;0.60;0.60;;;;;;;;;;5084563;28;20504;-77
2022/10/19 00:18:38;;;;;;;0.60;0.60;;;;;;;;;;5081269;28;20475;-78
2022/10/19 00:21:06;;;;;;;0.80;0.80;;;;;;;;;;5070724;28;20571;-77
2022/10/19 00:23:33;;;;;;;0.80;0.80;;;;;;;;;;5077282;28;20459;-77
2022/10/19 00:26:00;;;;;;;0.60;0.50;;;;;;;;;;5060850;28;20435;-75
2022/10/19 00:28:27;;;;;;;0.60;0.60;;;;;;;;;;5071363;28;20444;-77
2022/10/19 00:30:55;;;;;;;0.60;0.60;;;;;;;;;;5067464;28;20490;-77
2022/10/19 00:33:21;;;;;;;0.60;0.60;;;;;;;;;;5081858;28;20462;-74
2022/10/19 00:35:50;;;;;;;0.70;0.70;;;;;;;;;;5085831;28;20462;-75
2022/10/19 00:38:18;;;;;;;0.60;0.50;;;;;;;;;;5088631;28;20430;-79
2022/10/19 00:40:46;;;;;;;0.60;0.60;;;;;;;;;;5083076;28;20496;-78
2022/10/19 00:43:14;;;;;;;0.70;0.70;;;;;;;;;;5090168;28;20459;-77
2022/10/19 00:45:43;;;;;;;2.70;1.93;;;;;;;;;;5087398;28;20445;-76
2022/10/19 00:48:12;;;;;;;1.13;1.13;;;;;;;;;;5097147;28;20444;-78
2022/10/19 00:50:39;;;;;;;0.60;0.60;;;;;;;;;;5083068;28;20439;-75
2022/10/19 00:53:08;;;;;;;0.80;0.80;;;;;;;;;;5084086;28;20454;-77
2022/10/19 00:55:42;;;;;;;0.60;0.60;;;;;;;;;;5072598;28;20438;-77
2022/10/19 00:58:12;;;;;;;0.60;0.60;;;;;;;;;;5081759;28;20508;-75
2022/10/19 01:00:47;;;;;;;0.60;0.60;;;;;;;;;;5080284;28;20554;-79
2022/10/19 01:03:19;;;;;;;0.60;0.50;;;;;;;;;;5080463;28;20443;-74
2022/10/19 01:05:54;;;;;;;0.60;0.60;;;;;;;;;;5081766;28;20452;-75
2022/10/19 01:08:26;;;;;;;0.60;0.60;;;;;;;;;;5076345;28;20853;-77
2022/10/19 01:11:03;;;;;;;0.60;0.60;;;;;;;;;;5064724;28;20453;-77
2022/10/19 01:13:40;;;;;;;0.97;0.97;;;;;;;;;;5082916;28;20447;-77
2022/10/19 01:16:14;;;;;;;0.60;0.60;;;;;;;;;;5072396;28;20439;-77
2022/10/19 01:18:45;;;;;;;0.60;0.60;;;;;;;;;;5063509;28;20555;-77
2022/10/19 01:21:21;;;;;;;0.60;0.50;;;;;;;;;;5082346;28;20903;-77
2022/10/19 01:24:08;;;;;;;0.60;0.60;;;;;;;;;;5083183;28;20959;-77
2022/10/19 01:26:46;;;;;;;0.60;0.50;;;;;;;;;;5082419;28;20456;-78
2022/10/19 01:29:21;;;;;;;0.60;0.50;;;;;;;;;;5081406;28;20434;-78
2022/10/19 01:31:56;;;;;;;0.60;0.60;;;;;;;;;;5082448;28;20530;-77
2022/10/19 01:34:30;;;;;;;1.43;1.33;;;;;;;;;;5078055;28;20451;-77
2022/10/19 01:37:05;;;;;;;0.60;0.50;;;;;;;;;;5086596;28;20480;-77
2022/10/19 01:39:37;;;;;;;0.70;0.70;;;;;;;;;;5081200;28;20438;-76
2022/10/19 01:42:22;;;;;;;0.60;0.60;;;;;;;;;;5082240;28;20451;-77
2022/10/19 01:44:59;;;;;;;0.60;0.60;;;;;;;;;;5085523;28;20827;-77
2022/10/19 01:47:34;;;;;;;0.60;0.60;;;;;;;;;;5054602;28;20455;-78
2022/10/19 01:50:07;;;;;;;0.60;0.57;;;;;;;;;;5070815;28;20443;-76
2022/10/19 01:52:39;;;;;;;0.60;0.50;;;;;;;;;;5040186;28;20556;-76
2022/10/19 01:55:10;;;;;;;0.60;0.60;;;;;;;;;;5062120;28;20554;-77
2022/10/19 01:57:42;;;;;;;0.60;0.50;;;;;;;;;;5078553;28;20997;-76
2022/10/19 02:00:14;;;;;;;0.60;0.60;;;;;;;;;;5047595;28;20476;-77
2022/10/19 02:02:46;;;;;;;1.53;1.30;;;;;;;;;;5073689;28;20443;-76
2022/10/19 02:05:17;;;;;;;0.60;0.60;;;;;;;;;;5082119;28;20434;-79
2022/10/19 02:07:49;;;;;;;1.17;1.07;;;;;;;;;;5060342;28;20561;-77
2022/10/19 02:10:17;;;;;;;5.60;1.27;;;;;;;;;;5056930;28;20437;-77
2022/10/19 02:12:44;;;;;;;0.73;0.70;;;;;;;;;;5056209;28;20950;-76
2022/10/19 02:15:13;;;;;;;0.60;0.60;;;;;;;;;;5085245;28;20478;-76
2022/10/19 02:17:42;;;;;;;0.63;0.60;;;;;;;;;;5078406;28;20439;-77
2022/10/19 02:20:12;;;;;;;1.20;1.10;;;;;;;;;;5080969;28;21029;-77
2022/10/19 02:22:38;;;;;;;0.60;0.60;;;;;;;;;;5080187;28;20447;-80
2022/10/19 02:25:06;;;;;;;0.60;0.50;;;;;;;;;;5080782;28;20448;-76
2022/10/19 02:27:33;;;;;;;0.60;0.50;;;;;;;;;;5080980;28;20447;-76
2022/10/19 02:29:59;;;;;;;0.60;0.53;;;;;;;;;;5075253;28;20438;-77
2022/10/19 02:32:26;;;;;;;0.60;0.57;;;;;;;;;;5055104;28;20454;-77
2022/10/19 02:34:53;;;;;;;0.70;0.70;;;;;;;;;;5069836;28;20435;-77
2022/10/19 02:37:22;;;;;;;0.60;0.60;;;;;;;;;;5076767;28;20476;-77
2022/10/19 02:39:52;;;;;;;0.60;0.60;;;;;;;;;;5086352;28;20457;-77
2022/10/19 02:42:21;;;;;;;0.80;0.80;;;;;;;;;;5091080;28;20955;-77
2022/10/19 02:44:50;;;;;;;0.60;0.60;;;;;;;;;;5082293;28;20466;-77
2022/10/19 02:47:18;;;;;;;0.60;0.60;;;;;;;;;;5082926;28;20465;-78
2022/10/19 02:49:45;;;;;;;0.60;0.60;;;;;;;;;;5071651;28;20439;-76
2022/10/19 02:52:12;;;;;;;1.10;1.00;;;;;;;;;;5084628;28;20989;-75
2022/10/19 02:54:42;;;;;;;1.10;1.00;;;;;;;;;;5080367;28;20459;-77
2022/10/19 02:57:14;;;;;;;0.60;0.53;;;;;;;;;;5087337;28;20445;-76
2022/10/19 02:59:41;;;;;;;0.67;0.67;;;;;;;;;;5076897;28;20433;-76
2022/10/19 03:02:08;;;;;;;0.60;0.60;;;;;;;;;;5079323;28;20439;-77
2022/10/19 03:04:34;;;;;;;1.13;1.03;;;;;;;;;;5086416;28;20464;-77
2022/10/19 03:07:01;;;;;;;1.47;1.33;;;;;;;;;;5093338;28;20484;-76
2022/10/19 03:09:28;;;;;;;0.60;0.60;;;;;;;;;;5090984;28;20471;-77
2022/10/19 03:11:56;;;;;;;10.13;1.77;;;;;;;;;;5074068;28;20451;-77
2022/10/19 03:14:22;;;;;;;0.60;0.50;;;;;;;;;;5065858;28;20450;-77
2022/10/19 03:16:49;;;;;;;0.60;0.60;;;;;;;;;;5087861;28;20441;-76
2022/10/19 03:19:16;;;;;;;0.60;0.60;;;;;;;;;;5076147;28;20442;-78
2022/10/19 03:21:43;;;;;;;0.60;0.60;;;;;;;;;;5085094;28;20485;-77
2022/10/19 03:24:10;;;;;;;1.77;1.00;;;;;;;;;;5079200;28;20450;-78
2022/10/19 03:26:37;;;;;;;0.60;0.60;;;;;;;;;;5085279;28;20529;-77
2022/10/19 03:29:05;;;;;;;0.60;0.60;;;;;;;;;;5063539;28;20442;-76
2022/10/19 03:31:32;;;;;;;0.60;0.50;;;;;;;;;;5055863;28;20978;-77
2022/10/19 03:33:58;;;;;;;0.60;0.60;;;;;;;;;;5073226;28;20469;-78
2022/10/19 03:36:26;;;;;;;0.60;0.60;;;;;;;;;;5090207;28;20454;-78
2022/10/19 03:38:53;;;;;;;0.60;0.60;;;;;;;;;;5087268;28;20454;-78
2022/10/19 03:41:23;;;;;;;0.60;0.50;;;;;;;;;;5068591;28;20493;-77
2022/10/19 03:43:50;;;;;;;0.60;0.60;;;;;;;;;;5086200;28;20446;-77
2022/10/19 03:46:19;;;;;;;0.60;0.60;;;;;;;;;;5081236;28;20442;-77
2022/10/19 03:48:48;;;;;;;0.60;0.60;;;;;;;;;;5077633;28;20521;-77
2022/10/19 03:51:18;;;;;;;0.60;0.50;;;;;;;;;;5085053;28;20462;-77
2022/10/19 03:53:45;;;;;;;0.60;0.60;;;;;;;;;;5060886;28;20458;-77
2022/10/19 03:56:12;;;;;;;0.63;0.63;;;;;;;;;;5094293;28;20450;-76
2022/10/19 03:58:40;;;;;;;0.60;0.60;;;;;;;;;;5090546;28;20969;-77
2022/10/19 04:01:08;;;;;;;0.83;0.83;;;;;;;;;;5067690;28;20803;-77
2022/10/19 04:03:37;;;;;;;0.70;0.70;;;;;;;;;;5066907;28;20454;-77
2022/10/19 04:06:04;;;;;;;0.60;0.60;;;;;;;;;;5084768;28;21068;-77
2022/10/19 04:08:31;;;;;;;0.60;0.60;;;;;;;;;;5066264;28;21565;-76
2022/10/19 04:10:58;;;;;;;0.60;0.60;;;;;;;;;;5063218;28;20437;-77
2022/10/19 04:13:25;;;;;;;0.60;0.60;;;;;;;;;;5073997;28;20451;-78
2022/10/19 04:15:52;;;;;;;0.60;0.60;;;;;;;;;;5080044;28;20423;-78
2022/10/19 04:18:21;;;;;;;0.60;0.60;;;;;;;;;;5080568;28;20458;-77
2022/10/19 04:20:54;;;;;;;0.73;0.73;;;;;;;;;;5082854;28;20820;-77
2022/10/19 04:23:20;;;;;;;0.60;0.60;;;;;;;;;;5043009;28;20451;-78
2022/10/19 04:25:47;;;;;;;0.60;0.60;;;;;;;;;;5085841;28;20207;-78
2022/10/19 04:28:14;;;;;;;0.80;0.80;;;;;;;;;;5085945;28;20426;-77
2022/10/19 04:30:41;;;;;;;0.60;0.60;;;;;;;;;;5088720;28;20434;-76
2022/10/19 04:33:08;;;;;;;0.60;0.60;;;;;;;;;;5075889;28;20469;-77
2022/10/19 04:35:40;;;;;;;0.63;0.63;;;;;;;;;;5068332;28;20465;-78
2022/10/19 04:38:08;;;;;;;0.60;0.50;;;;;;;;;;5084813;28;21017;-78
2022/10/19 04:40:35;;;;;;;3.37;1.77;;;;;;;;;;5067788;28;20722;-76
2022/10/19 04:43:03;;;;;;;0.60;0.50;;;;;;;;;;5064934;28;20454;-76
2022/10/19 04:45:30;;;;;;;0.60;0.60;;;;;;;;;;5072180;28;20476;-77
2022/10/19 04:47:56;;;;;;;0.60;0.60;;;;;;;;;;5089847;28;20196;-78
2022/10/19 04:50:23;;;;;;;0.60;0.60;;;;;;;;;;5093009;28;20545;-77
2022/10/19 04:52:54;;;;;;;0.60;0.60;;;;;;;;;;5086948;28;20827;-77
2022/10/19 04:55:22;;;;;;;0.60;0.60;;;;;;;;;;5070282;28;20445;-78
2022/10/19 04:57:49;;;;;;;0.60;0.60;;;;;;;;;;5062308;28;20563;-77
2022/10/19 05:00:15;;;;;;;0.60;0.60;;;;;;;;;;5078125;28;20804;-77
2022/10/19 05:02:44;;;;;;;0.60;0.60;;;;;;;;;;5078191;28;20471;-77
2022/10/19 05:05:12;;;;;;;0.60;0.60;;;;;;;;;;5083662;28;20535;-77
2022/10/19 05:07:39;;;;;;;0.60;0.60;;;;;;;;;;5059170;28;20990;-76
2022/10/19 05:10:07;;;;;;;0.60;0.60;;;;;;;;;;5083106;28;20465;-77
2022/10/19 05:12:35;;;;;;;0.60;0.50;;;;;;;;;;5078977;28;20469;-76
2022/10/19 05:15:02;;;;;;;0.60;0.60;;;;;;;;;;5075730;28;20432;-78
2022/10/19 05:17:29;;;;;;;0.60;0.60;;;;;;;;;;5073854;28;20197;-78
2022/10/19 05:19:58;;;;;;;0.60;0.50;;;;;;;;;;5076546;28;20235;-78
2022/10/19 05:22:24;;;;;;;5.63;1.93;;;;;;;;;;5071914;28;20268;-79
2022/10/19 05:24:52;;;;;;;0.77;0.77;;;;;;;;;;5081546;28;20454;-79
2022/10/19 05:27:23;;;;;;;0.60;0.60;;;;;;;;;;5068936;28;20840;-78
2022/10/19 05:29:51;;;;;;;0.65;0.65;;;;;;;;;;5081469;28;20196;-79
2022/10/19 05:32:18;;;;;;;0.60;0.60;;;;;;;;;;5084575;28;20188;-78
2022/10/19 05:34:45;;;;;;;0.60;0.60;;;;;;;;;;5077053;28;20213;-78
2022/10/19 05:37:14;;;;;;;0.60;0.60;;;;;;;;;;5061453;28;20256;-77
2022/10/19 05:39:41;;;;;;;0.60;0.50;;;;;;;;;;5046442;28;20261;-78
2022/10/19 05:42:08;;;;;;;0.60;0.60;;;;;;;;;;5091197;28;20212;-77
2022/10/19 05:44:36;;;;;;;0.60;0.50;;;;;;;;;;5076199;28;20830;-77
2022/10/19 05:47:04;;;;;;;0.80;0.80;;;;;;;;;;5073607;28;20534;-77
2022/10/19 05:49:30;;;;;;;0.60;0.53;;;;;;;;;;5075888;28;20464;-78
2022/10/19 05:51:57;;;;;;;0.70;0.70;;;;;;;;;;5059850;28;20486;-80
2022/10/19 05:54:27;;;;;;;0.60;0.53;;;;;;;;;;5081108;28;20447;-78
2022/10/19 05:56:55;;;;;;;0.70;0.70;;;;;;;;;;5065766;28;21280;-79
2022/10/19 05:59:24;;;;;;;0.80;0.80;;;;;;;;;;5065564;28;20203;-78
2022/10/19 06:01:51;;;;;;;0.60;0.52;;;;;;;;;;5076484;28;20324;-77
2022/10/19 06:04:19;;;;;;;0.60;0.50;;;;;;;;;;5077281;28;20239;-78
2022/10/19 06:06:46;;;;;;;0.60;0.60;;;;;;;;;;5080392;28;20221;-78
2022/10/19 06:09:14;;;;;;;0.60;0.60;;;;;;;;;;5075767;28;20200;-78
2022/10/19 06:11:41;;;;;;;0.60;0.60;;;;;;;;;;5075191;28;20216;-78
2022/10/19 06:14:10;;;;;;;0.60;0.60;;;;;;;;;;5081162;28;20665;-78
2022/10/19 06:16:39;;;;;;;0.60;0.60;;;;;;;;;;5063965;28;20202;-78
2022/10/19 06:19:05;;;;;;;0.70;0.70;;;;;;;;;;5086491;28;20442;-77
2022/10/19 06:21:34;;;;;;;0.60;0.60;;;;;;;;;;5073765;28;20583;-77
2022/10/19 06:24:01;;;;;;;0.60;0.60;;;;;;;;;;5080393;28;20184;-77
2022/10/19 06:26:29;;;;;;;0.60;0.60;;;;;;;;;;5087147;28;20193;-77
2022/10/19 06:28:59;;;;;;;0.60;0.60;;;;;;;;;;5085758;28;21032;-77
2022/10/19 06:31:26;;;;;;;0.60;0.60;;;;;;;;;;5068924;28;20664;-77
2022/10/19 06:33:53;;;;;;;0.60;0.60;;;;;;;;;;5075305;28;20205;-77
2022/10/19 06:36:23;;;;;;;0.60;0.60;;;;;;;;;;5064001;28;20467;-76
2022/10/19 06:38:52;;;;;;;0.60;0.60;;;;;;;;;;5084902;28;20429;-76
2022/10/19 06:41:19;;;;;;;0.70;0.70;;;;;;;;;;5090098;28;20207;-78
2022/10/19 06:43:49;;;;;;;0.60;0.60;;;;;;;;;;5080105;28;20462;-77
2022/10/19 06:46:19;;;;;;;0.60;0.60;;;;;;;;;;5081945;28;20926;-77
2022/10/19 06:48:55;;;;;;;0.60;0.60;;;;;;;;;;5084191;28;20438;-79
2022/10/19 06:51:24;;;;;;;0.60;0.60;;;;;;;;;;5079933;28;20463;-78
2022/10/19 06:53:53;;;;;;;0.60;0.60;;;;;;;;;;5063261;28;20461;-78
2022/10/19 06:56:23;;;;;;;0.60;0.60;;;;;;;;;;5059907;28;20452;-79
2022/10/19 06:58:50;;;;;;;1.10;0.90;;;;;;;;;;5077227;28;20457;-80
2022/10/19 07:01:18;;;;;;;0.60;0.60;;;;;;;;;;5077476;28;20557;-76
2022/10/19 07:03:46;;;;;;;0.60;0.60;;;;;;;;;;5062741;28;20455;-76
2022/10/19 07:06:14;;;;;;;0.60;0.50;;;;;;;;;;5091068;28;20458;-79
2022/10/19 07:08:41;;;;;;;0.60;0.60;;;;;;;;;;5068130;28;20451;-77
2022/10/19 07:11:13;;;;;;;0.97;0.87;;;;;;;;;;5068683;28;20864;-77
2022/10/19 07:13:40;;;;;;;0.70;0.70;;;;;;;;;;5061921;28;21092;-78
2022/10/19 07:16:10;;;;;;;1.43;1.30;;;;;;;;;;5085765;28;20432;-79
2022/10/19 07:18:46;;;;;;;0.60;0.50;;;;;;;;;;5062899;28;20552;-78
2022/10/19 07:21:13;;;;;;;0.60;0.50;;;;;;;;;;5077790;28;20489;-78
2022/10/19 07:23:41;;;;;;;1.67;1.13;;;;;;;;;;5084413;28;20446;-80
2022/10/19 07:26:22;;;;;;;0.60;0.60;;;;;;;;;;5081686;28;20430;-78
2022/10/19 07:28:51;;;;;;;2.20;1.00;;;;;;;;;;5057251;28;20449;-76
2022/10/19 07:31:19;;;;;;;0.60;0.53;;;;;;;;;;5089080;28;20450;-78
2022/10/19 07:33:46;;;;;;;0.60;0.60;;;;;;;;;;5078828;28;20466;-80
2022/10/19 07:36:13;;;;;;;0.60;0.60;;;;;;;;;;5077380;28;20458;-78
2022/10/19 07:38:40;;;;;;;0.60;0.57;;;;;;;;;;5086305;28;20947;-79
2022/10/19 07:41:08;;;;;;;0.60;0.50;;;;;;;;;;5085223;28;20790;-77
2022/10/19 07:43:37;;;;;;;1.47;1.37;;;;;;;;;;5083441;28;20525;-76
2022/10/19 07:46:05;;;;;;;0.60;0.60;;;;;;;;;;5083727;28;20455;-77
2022/10/19 07:48:32;;;;;;;0.60;0.60;;;;;;;;;;5081437;28;20771;-77
2022/10/19 07:50:59;;;;;;;0.60;0.50;;;;;;;;;;5080412;28;20573;-79
2022/10/19 07:53:26;;;;;;;0.60;0.50;;;;;;;;;;5078192;28;20529;-79
2022/10/19 07:55:53;;;;;;;0.60;0.60;;;;;;;;;;5066445;28;20449;-78
2022/10/19 07:58:20;;;;;;;0.60;0.57;;;;;;;;;;5074893;28;20837;-79
2022/10/19 08:00:50;;;;;;;0.60;0.60;;;;;;;;;;5073891;28;20873;-79
2022/10/19 08:03:17;;;;;;;0.80;0.80;;;;;;;;;;5078857;28;21504;-77
2022/10/19 08:06:05;;;;;;;0.60;0.60;;;;;;;;;;5084978;28;20456;-80
2022/10/19 08:08:32;;;;;;;0.60;0.57;;;;;;;;;;5089199;28;20441;-78
2022/10/19 08:11:05;;;;;;;0.60;0.60;;;;;;;;;;5064921;28;20530;-77
2022/10/19 08:13:31;;;;;;;1.00;0.77;;;;;;;;;;5081815;28;20467;-77
2022/10/19 08:16:00;;;;;;;0.60;0.60;;;;;;;;;;5080559;28;20453;-80
2022/10/19 08:18:26;;;;;;;1.13;1.07;;;;;;;;;;5064254;28;20452;-77
2022/10/19 08:20:53;;;;;;;1.27;1.17;;;;;;;;;;5087348;28;20471;-77
2022/10/19 08:23:21;;;;;;;0.60;0.60;;;;;;;;;;5078854;28;21137;-77
2022/10/19 08:25:48;;;;;;;0.60;0.50;;;;;;;;;;5076317;28;20826;-75
2022/10/19 08:28:15;;;;;;;0.60;0.60;;;;;;;;;;5085654;28;20556;-76
2022/10/19 08:30:45;;;;;;;0.60;0.60;;;;;;;;;;5080507;28;20441;-76
2022/10/19 08:33:14;;;;;;;0.60;0.60;;;;;;;;;;5075398;28;20805;-77
2022/10/19 08:35:41;;;;;;;0.70;0.70;;;;;;;;;;5086630;28;20456;-75
2022/10/19 08:38:09;;;;;;;0.60;0.60;;;;;;;;;;5064846;28;20778;-79
2022/10/19 08:40:36;;;;;;;0.90;0.90;;;;;;;;;;5067083;28;20464;-77
2022/10/19 08:43:09;;;;;;;1.00;1.00;;;;;;;;;;5079171;28;20483;-79
2022/10/19 08:45:39;;;;;;;1.23;1.13;;;;;;;;;;5063223;28;20487;-79
2022/10/19 08:48:21;;;;;;;0.60;0.60;;;;;;;;;;5090407;28;20445;-78
2022/10/19 08:50:48;;;;;;;0.80;0.80;;;;;;;;;;5056104;28;20456;-77
2022/10/19 08:53:17;;;;;;;0.90;0.90;;;;;;;;;;5062318;28;20442;-78
2022/10/19 08:55:49;;;;;;;0.70;0.70;;;;;;;;;;5083556;28;20445;-78
2022/10/19 08:58:26;;;;;;;0.70;0.70;;;;;;;;;;5074499;28;20442;-78
2022/10/19 09:00:58;;;;;;;0.70;0.70;;;;;;;;;;5065685;28;20433;-79
2022/10/19 09:03:29;;;;;;;0.60;0.60;;;;;;;;;;5080436;28;20477;-79
2022/10/19 09:06:21;;;;;;;0.70;0.67;;;;;;;;;;5068620;28;20467;-79
2022/10/19 09:08:49;;;;;;;0.70;0.70;;;;;;;;;;5062920;28;20447;-78
2022/10/19 09:11:18;;;;;;;0.60;0.60;;;;;;;;;;5078108;28;20452;-78
2022/10/19 09:13:45;;;;;;;0.60;0.60;;;;;;;;;;5076611;28;20450;-76
2022/10/19 09:16:31;;;;;;;1.17;1.07;;;;;;;;;;5076197;28;20434;-76
2022/10/19 09:19:01;;;;;;;0.70;0.70;;;;;;;;;;5090210;28;20450;-77
2022/10/19 09:21:34;;;;;;;0.97;0.90;;;;;;;;;;5071733;28;20482;-76
2022/10/19 09:24:15;;;;;;;0.67;0.60;;;;;;;;;;5073059;28;20458;-78
2022/10/19 09:26:48;;;;;;;0.70;0.67;;;;;;;;;;5083063;28;20541;-76
2022/10/19 09:29:20;;;;;;;0.70;0.60;;;;;;;;;;5086227;28;20442;-78
2022/10/19 09:31:49;;;;;;;0.70;0.70;;;;;;;;;;5067603;28;20462;-77
2022/10/19 09:34:19;;;;;;;0.70;0.70;;;;;;;;;;5073271;28;20461;-78
2022/10/19 09:36:50;;;;;;;0.70;0.70;;;;;;;;;;5070920;28;20585;-78
2022/10/19 09:39:17;;;;;;;0.70;0.70;;;;;;;;;;5059647;28;20462;-77
2022/10/19 09:41:46;;;;;;;1.83;1.73;;;;;;;;;;5081537;28;20451;-77
2022/10/19 09:44:12;;;;;;;0.97;0.97;;;;;;;;;;5084718;28;20490;-77
2022/10/19 09:46:42;;;;;;;0.70;0.67;;;;;;;;;;5086143;28;20409;-77
2022/10/19 09:49:14;;;;;;;0.70;0.60;;;;;;;;;;5082330;28;20436;-77
2022/10/19 09:51:49;;;;;;;0.70;0.70;;;;;;;;;;5058879;28;20471;-78
2022/10/19 09:54:25;;;;;;;0.70;0.60;;;;;;;;;;5078057;28;20509;-78
2022/10/19 09:56:55;;;;;;;0.70;0.70;;;;;;;;;;5077579;28;20406;-77
2022/10/19 09:59:23;;;;;;;0.70;0.70;;;;;;;;;;5071768;28;20426;-77
2022/10/19 10:02:12;;;;;;;0.73;0.73;;;;;;;;;;5062719;28;20943;-78
2022/10/19 10:04:44;;;;;;;0.70;0.70;;;;;;;;;;5065220;28;20488;-77
2022/10/19 10:07:14;;;;;;;0.77;0.70;;;;;;;;;;5081389;28;20450;-78
2022/10/19 10:09:43;;;;;;;0.97;0.97;;;;;;;;;;5090461;28;20733;-77
2022/10/19 10:12:13;;;;;;;0.70;0.70;;;;;;;;;;5065821;28;20818;-76
2022/10/19 10:14:42;;;;;;;0.80;0.80;;;;;;;;;;5087483;28;20457;-77
2022/10/19 10:17:12;;;;;;;0.70;0.70;;;;;;;;;;5072564;28;20445;-78
2022/10/19 10:19:48;;;;;;;0.80;0.80;;;;;;;;;;5082695;28;20446;-78
2022/10/19 10:22:23;;;;;;;1.33;1.23;;;;;;;;;;5077015;28;20741;-76
2022/10/19 10:24:50;;;;;;;0.70;0.70;;;;;;;;;;5080428;28;20436;-77
2022/10/19 10:27:24;;;;;;;0.87;0.87;;;;;;;;;;5076124;28;20431;-77
2022/10/19 10:29:53;;;;;;;0.70;0.70;;;;;;;;;;5080049;28;20526;-78
2022/10/19 10:32:20;;;;;;;0.80;0.80;;;;;;;;;;5082060;28;20480;-78
2022/10/19 10:34:54;;;;;;;0.70;0.67;;;;;;;;;;5062580;28;20446;-78
2022/10/19 10:37:29;;;;;;;0.80;0.80;;;;;;;;;;5073879;28;20504;-78
2022/10/19 10:39:56;;;;;;;0.70;0.60;;;;;;;;;;5078504;28;20499;-78
2022/10/19 10:42:33;;;;;;;0.70;0.60;;;;;;;;;;5071729;28;20700;-77
2022/10/19 10:45:01;;;;;;;0.70;0.60;;;;;;;;;;5070093;28;20439;-77
2022/10/19 10:47:28;;;;;;;0.80;0.80;;;;;;;;;;5081528;28;20449;-77
2022/10/19 10:49:56;;;;;;;0.80;0.77;;;;;;;;;;5085983;28;20422;-78
2022/10/19 10:52:24;;;;;;;0.70;0.70;;;;;;;;;;5074954;28;20540;-78
2022/10/19 10:55:00;;;;;;;1.00;1.00;;;;;;;;;;5081337;28;20501;-79
2022/10/19 10:57:31;;;;;;;0.83;0.83;;;;;;;;;;5065857;28;20453;-79
2022/10/19 11:00:00;;;;;;;0.70;0.70;;;;;;;;;;5069619;28;20443;-78
2022/10/19 11:02:31;;;;;;;0.70;0.60;;;;;;;;;;5080236;28;20476;-78
2022/10/19 11:05:00;;;;;;;0.83;0.83;;;;;;;;;;5052130;28;20451;-78
2022/10/19 11:07:28;;;;;;;0.80;0.80;;;;;;;;;;5083767;28;20529;-78
2022/10/19 11:09:56;;;;;;;0.70;0.67;;;;;;;;;;5080749;28;20990;-77
2022/10/19 11:12:31;;;;;;;0.80;0.77;;;;;;;;;;5081009;28;20461;-79
2022/10/19 11:15:04;;;;;;;0.70;0.60;;;;;;;;;;5085046;28;20413;-79
2022/10/19 11:17:35;;;;;;;0.80;0.80;;;;;;;;;;5080637;28;20426;-78
2022/10/19 11:20:21;;;;;;;0.70;0.70;;;;;;;;;;5071393;28;20429;-78
2022/10/19 11:22:51;;;;;;;0.70;0.70;;;;;;;;;;5082298;28;20534;-78
2022/10/19 11:25:23;;;;;;;0.70;0.70;;;;;;;;;;5086196;28;20426;-79
2022/10/19 11:27:56;;;;;;;0.70;0.60;;;;;;;;;;5086481;28;20453;-78
2022/10/19 11:30:24;;;;;;;0.80;0.80;;;;;;;;;;5062984;28;20414;-79
2022/10/19 11:32:57;;;;;;;0.70;0.70;;;;;;;;;;5081305;28;20430;-78
2022/10/19 11:35:34;;;;;;;0.70;0.70;;;;;;;;;;5084277;28;20486;-79
2022/10/19 11:38:08;;;;;;;0.70;0.60;;;;;;;;;;5071815;28;20463;-79
2022/10/19 11:41:00;;;;;;;0.70;0.60;;;;;;;;;;5064336;28;20418;-80
2022/10/19 11:43:53;;;;;;;0.70;0.60;;;;;;;;;;5070975;28;20482;-78
2022/10/19 11:46:24;;;;;;;0.80;0.70;;;;;;;;;;5079636;28;20429;-79
2022/10/19 11:49:03;;;;;;;0.70;0.60;;;;;;;;;;5084582;28;20415;-78
2022/10/19 11:51:33;;;;;;;0.93;0.90;;;;;;;;;;5083097;28;20967;-78
2022/10/19 11:54:07;;;;;;;2.60;1.10;;;;;;;;;;5055610;28;20443;-80
2022/10/19 11:56:43;;;;;;;0.80;0.77;;;;;;;;;;5083033;28;20429;-79
2022/10/19 11:59:42;;;;;;;1.23;0.87;;;;;;;;;;5078495;28;20420;-80
2022/10/19 12:02:19;;;;;;;0.70;0.60;;;;;;;;;;5089660;28;20433;-79
2022/10/19 12:04:50;;;;;;;0.80;0.80;;;;;;;;;;5080938;28;20458;-80
2022/10/19 12:07:29;;;;;;;0.70;0.67;;;;;;;;;;5062240;28;20457;-78
2022/10/19 12:10:00;;;;;;;0.80;0.70;;;;;;;;;;5081056;28;20503;-77
2022/10/19 12:12:30;;;;;;;0.70;0.60;;;;;;;;;;5085238;28;20965;-78
2022/10/19 12:15:11;;;;;;;0.70;0.63;;;;;;;;;;5066177;28;20822;-78
2022/10/19 12:17:40;;;;;;;0.80;0.70;;;;;;;;;;5065488;28;20461;-79
2022/10/19 12:20:13;;;;;;;0.70;0.70;;;;;;;;;;5083049;28;20421;-80
2022/10/19 12:22:45;;;;;;;0.70;0.60;;;;;;;;;;5087850;28;20779;-80
2022/10/19 12:25:15;;;;;;;0.90;0.90;;;;;;;;;;5078476;28;20430;-79
2022/10/19 12:27:45;;;;;;;0.80;0.80;;;;;;;;;;5071997;28;20447;-78
2022/10/19 12:30:15;;;;;;;0.73;0.70;;;;;;;;;;5058499;28;20439;-77
2022/10/19 12:32:46;;;;;;;0.80;0.80;;;;;;;;;;5074738;28;20410;-78
2022/10/19 12:35:35;;;;;;;0.80;0.70;;;;;;;;;;5070839;28;20428;-79
2022/10/19 12:38:05;;;;;;;0.70;0.70;;;;;;;;;;5072504;28;20421;-79
2022/10/19 12:40:36;;;;;;;0.70;0.60;;;;;;;;;;5067113;28;21022;-78
2022/10/19 12:43:08;;;;;;;0.70;0.70;;;;;;;;;;5084624;28;20451;-77
2022/10/19 12:45:39;;;;;;;1.27;1.17;;;;;;;;;;5086584;28;20478;-78
2022/10/19 12:48:17;;;;;;;0.90;0.90;;;;;;;;;;5075661;28;20962;-78
2022/10/19 12:51:01;;;;;;;0.70;0.60;;;;;;;;;;5076428;28;20466;-79
2022/10/19 12:53:30;;;;;;;0.80;0.70;;;;;;;;;;5074298;28;20424;-80
2022/10/19 12:55:58;;;;;;;0.70;0.60;;;;;;;;;;5064034;28;20478;-80
2022/10/19 12:58:28;;;;;;;3.23;1.67;;;;;;;;;;5081699;28;20417;-80
2022/10/19 13:01:00;;;;;;;0.73;0.73;;;;;;;;;;5089892;28;20424;-80
2022/10/19 13:03:30;;;;;;;0.70;0.70;;;;;;;;;;5057661;28;21017;-80
2022/10/19 13:05:57;;;;;;;0.80;0.70;;;;;;;;;;5076303;28;20477;-79
2022/10/19 13:08:27;;;;;;;0.90;0.90;;;;;;;;;;5054106;28;20431;-79
2022/10/19 13:11:04;;;;;;;0.80;0.70;;;;;;;;;;5077075;28;20525;-80
2022/10/19 13:13:55;;;;;;;0.70;0.67;;;;;;;;;;5069637;28;20526;-79
2022/10/19 13:16:32;;;;;;;0.97;0.90;;;;;;;;;;5076264;28;20426;-80
2022/10/19 13:19:01;;;;;;;0.70;0.60;;;;;;;;;;5062771;28;20491;-79
2022/10/19 13:21:42;;;;;;;0.70;0.70;;;;;;;;;;5080195;28;20619;-79
2022/10/19 13:24:19;;;;;;;0.70;0.60;;;;;;;;;;5082997;28;20432;-80
2022/10/19 13:27:07;;;;;;;1.43;1.33;;;;;;;;;;5084351;28;20503;-80
2022/10/19 13:29:41;;;;;;;0.80;0.80;;;;;;;;;;5077975;28;20881;-79
2022/10/19 13:35:24;;;;;;;0.80;0.80;;;;;;;;;;5156934;27;20317;-79
2022/10/19 13:38:18;;;;;;;3.50;0.90;;;;;;;;;;5119955;28;20420;-79
2022/10/19 13:41:15;;;;;;;0.70;0.70;;;;;;;;;;5120952;28;20412;-79
2022/10/19 13:43:56;;;;;;;0.70;0.70;;;;;;;;;;5120287;28;20440;-78
2022/10/19 13:46:31;;;;;;;0.70;0.60;;;;;;;;;;5127252;27;20824;-80
2022/10/19 13:49:12;;;;;;;1.10;1.00;;;;;;;;;;5130452;27;20494;-79
2022/10/19 13:51:47;;;;;;;0.70;0.70;;;;;;;;;;5127968;27;20515;-80
2022/10/19 13:54:22;;;;;;;0.90;0.90;;;;;;;;;;5127625;27;20460;-80
2022/10/19 13:57:04;;;;;;;0.70;0.70;;;;;;;;;;5139705;27;20539;-79
2022/10/19 13:59:42;;;;;;;0.80;0.70;;;;;;;;;;5122724;27;20810;-80
2022/10/19 14:02:19;;;;;;;0.90;0.90;;;;;;;;;;5120155;27;20425;-79
2022/10/19 14:04:50;;;;;;;0.70;0.70;;;;;;;;;;5109722;28;20444;-79
2022/10/19 14:07:20;;;;;;;0.70;0.70;;;;;;;;;;5115637;27;20485;-80
2022/10/19 14:09:55;;;;;;;0.80;0.73;;;;;;;;;;5103720;28;20490;-80
2022/10/19 14:12:24;;;;;;;0.70;0.70;;;;;;;;;;5119459;28;20433;-80
2022/10/19 14:14:52;;;;;;;0.73;0.70;;;;;;;;;;5116535;28;20454;-79
2022/10/19 14:17:23;;;;;;;1.17;1.10;;;;;;;;;;5117864;28;20436;-79
2022/10/19 14:19:52;;;;;;;0.70;0.67;;;;;;;;;;5127413;27;20408;-80
2022/10/19 14:22:22;;;;;;;0.90;0.90;;;;;;;;;;5102177;28;20447;-80
2022/10/19 14:24:58;;;;;;;0.80;0.70;;;;;;;;;;5117966;28;20732;-79
2022/10/19 14:27:25;;;;;;;0.77;0.70;;;;;;;;;;5137772;27;20518;-79
2022/10/19 14:29:53;;;;;;;0.70;0.70;;;;;;;;;;5128703;27;20427;-79
2022/10/19 14:32:21;;;;;;;0.80;0.70;;;;;;;;;;5128919;27;20440;-79
2022/10/19 14:34:48;;;;;;;1.03;0.93;;;;;;;;;;5126773;27;20469;-78
2022/10/19 14:37:16;;;;;;;0.70;0.70;;;;;;;;;;5128380;27;21000;-79
2022/10/19 14:39:57;;;;;;;0.70;0.70;;;;;;;;;;5108573;28;20786;-79
2022/10/19 14:42:33;;;;;;;0.70;0.70;;;;;;;;;;5105942;28;22006;-80
2022/10/19 14:45:04;;;;;;;0.80;0.80;;;;;;;;;;5112470;28;20448;-79
2022/10/19 14:47:32;;;;;;;0.80;0.70;;;;;;;;;;5087417;28;20470;-80
2022/10/19 14:49:59;;;;;;;0.70;0.60;;;;;;;;;;5106337;28;20462;-78
2022/10/19 14:52:27;;;;;;;0.80;0.73;;;;;;;;;;5099769;28;20519;-79
2022/10/19 14:55:03;;;;;;;0.70;0.70;;;;;;;;;;5107760;27;20468;-79
2022/10/19 14:57:32;;;;;;;0.70;0.60;;;;;;;;;;5105746;28;20457;-79
2022/10/19 15:00:00;;;;;;;0.70;0.70;;;;;;;;;;5104589;27;20848;-79
2022/10/19 15:02:30;;;;;;;0.73;0.70;;;;;;;;;;5116505;27;20555;-79
2022/10/19 15:04:58;;;;;;;0.70;0.70;;;;;;;;;;5118401;27;20483;-79
2022/10/19 15:07:27;;;;;;;0.70;0.70;;;;;;;;;;5109630;27;20468;-80